createdAt,value
2023-01-29T00:00:45.118Z,35.40
2023-01-29T00:05:39.120Z,34.25
2023-01-29T00:10:31.748Z,30.02
2023-01-29T00:15:24.629Z,30.67
2023-01-29T00:20:19.543Z,29.90
2023-01-29T00:25:14.430Z,29.05
2023-01-29T00:30:20.392Z,26.65
2023-01-29T00:35:14.514Z,27.55
2023-01-29T00:40:10.819Z,28.45
2023-01-29T00:45:05.282Z,27.00
2023-01-29T00:49:58.478Z,26.05
2023-01-29T00:54:52.047Z,27.38
2023-01-29T00:59:46.387Z,28.80
2023-01-29T01:04:39.389Z,27.52
2023-01-29T01:09:51.552Z,34.00
2023-01-29T01:14:45.204Z,41.92
2023-01-29T01:19:39.390Z,37.72
2023-01-29T01:24:32.207Z,34.88
2023-01-29T01:29:26.076Z,37.60
2023-01-29T01:34:20.152Z,40.67
2023-01-29T01:39:12.675Z,34.25
2023-01-29T01:44:07.545Z,35.65
2023-01-29T01:49:21.721Z,30.83
2023-01-29T01:54:20.507Z,33.75
2023-01-29T02:04:31.584Z,34.92
2023-01-29T02:10:07.827Z,31.92
2023-01-29T02:15:01.364Z,32.67
2023-01-29T02:20:02.336Z,34.17
2023-01-29T02:24:57.337Z,35.58
2023-01-29T02:30:04.836Z,28.02
2023-01-29T02:35:27.341Z,30.25
2023-01-29T02:41:05.569Z,31.38
2023-01-29T02:46:03.337Z,30.80
2023-01-29T02:51:00.212Z,33.10
2023-01-29T02:55:59.573Z,33.92
2023-01-29T03:00:53.046Z,30.35
2023-01-29T03:06:08.643Z,32.28
2023-01-29T03:11:05.039Z,33.33
2023-01-29T03:16:05.316Z,29.33
2023-01-29T03:21:29.651Z,34.30
2023-01-29T03:26:42.080Z,32.40
2023-01-29T03:31:54.392Z,30.17
2023-01-29T03:36:58.433Z,29.35
2023-01-29T03:42:05.205Z,31.98
2023-01-29T03:47:04.735Z,33.45
2023-01-29T03:57:12.367Z,34.90
2023-01-29T04:02:19.838Z,32.50
2023-01-29T04:07:23.812Z,31.38
2023-01-29T04:12:32.327Z,33.15
2023-01-29T04:17:30.523Z,32.17
2023-01-29T04:22:38.977Z,27.10
2023-01-29T04:27:31.839Z,33.58
2023-01-29T04:33:16.510Z,33.67
2023-01-29T04:38:48.129Z,29.52
2023-01-29T04:44:05.080Z,31.15
2023-01-29T04:49:17.266Z,29.58
2023-01-29T04:54:57.150Z,35.97
2023-01-29T05:00:05.452Z,32.08
2023-01-29T05:05:00.155Z,35.55
2023-01-29T05:09:53.431Z,31.42
2023-01-29T05:14:47.547Z,32.08
2023-01-29T05:19:40.303Z,34.53
2023-01-29T05:24:33.284Z,27.92
2023-01-29T05:29:27.324Z,26.08
2023-01-29T05:34:21.109Z,26.05
2023-01-29T05:39:14.072Z,29.08
2023-01-29T05:44:08.447Z,29.63
2023-01-29T05:49:01.679Z,31.40
2023-01-29T05:53:55.603Z,33.63
2023-01-29T05:58:49.383Z,28.98
2023-01-29T06:03:42.984Z,35.55
2023-01-29T06:08:36.032Z,27.67
2023-01-29T06:13:29.764Z,30.23
2023-01-29T06:18:24.292Z,29.88
2023-01-29T06:23:16.718Z,34.10
2023-01-29T06:28:09.837Z,28.60
2023-01-29T06:33:03.850Z,26.00
2023-01-29T06:37:57.386Z,25.30
2023-01-29T06:42:50.115Z,29.60
2023-01-29T06:47:43.279Z,26.15
2023-01-29T06:52:35.904Z,27.17
2023-01-29T06:57:30.745Z,42.20
2023-01-29T07:02:24.606Z,42.30
2023-01-29T07:07:18.163Z,35.05
2023-01-29T07:12:12.395Z,30.85
2023-01-29T07:17:06.134Z,28.45
2023-01-29T07:22:03.205Z,29.30
2023-01-29T07:26:56.119Z,26.08
2023-01-29T07:31:49.750Z,29.63
2023-01-29T07:36:43.522Z,30.23
2023-01-29T07:41:38.459Z,31.33
2023-01-29T07:46:41.348Z,28.67
2023-01-29T07:51:35.879Z,30.80
2023-01-29T07:56:29.807Z,30.25
2023-01-29T08:01:23.286Z,32.88
2023-01-29T08:06:16.464Z,32.53
2023-01-29T08:11:10.927Z,39.03
2023-01-29T08:16:06.941Z,31.05
2023-01-29T08:21:21.968Z,38.85
2023-01-29T08:26:15.500Z,38.63
2023-01-29T08:31:17.676Z,32.90
2023-01-29T08:36:12.440Z,48.58
2023-01-29T08:41:05.757Z,33.58
2023-01-29T08:45:58.909Z,34.75
2023-01-29T08:50:53.105Z,33.85
2023-01-29T08:55:46.907Z,32.97
2023-01-29T09:00:40.219Z,31.20
2023-01-29T09:05:34.940Z,30.48
2023-01-29T09:10:28.459Z,32.22
2023-01-29T09:15:21.063Z,32.22
2023-01-29T09:20:13.808Z,26.50
2023-01-29T09:25:09.559Z,24.50
2023-01-29T09:30:02.673Z,28.40
2023-01-29T09:34:56.099Z,22.70
2023-01-29T09:39:50.154Z,23.40
2023-01-29T09:45:01.500Z,27.27
2023-01-29T09:49:58.808Z,26.73
2023-01-29T09:54:56.785Z,23.92
2023-01-29T10:04:54.445Z,23.80
2023-01-29T10:09:59.717Z,24.00
2023-01-29T10:14:58.548Z,22.67
2023-01-29T10:19:56.426Z,24.90
2023-01-29T10:24:56.499Z,21.60
2023-01-29T10:29:53.620Z,27.35
2023-01-29T10:34:54.947Z,28.27
2023-01-29T10:39:48.504Z,28.25
2023-01-29T10:44:50.770Z,22.05
2023-01-29T10:49:53.210Z,26.80
2023-01-29T10:55:14.571Z,29.88
2023-01-29T11:00:20.496Z,25.40
2023-01-29T11:05:22.040Z,24.83
2023-01-29T11:10:20.904Z,26.20
2023-01-29T11:15:24.772Z,26.35
2023-01-29T11:20:29.603Z,30.63
2023-01-29T11:25:24.502Z,27.20
2023-01-29T11:30:28.497Z,25.98
2023-01-29T11:35:23.563Z,49.25
2023-01-29T11:40:19.441Z,25.35
2023-01-29T11:45:20.634Z,27.02
2023-01-29T11:50:22.351Z,23.75
2023-01-29T11:55:23.974Z,30.10
2023-01-29T12:00:23.096Z,30.15
2023-01-29T12:05:21.981Z,24.50
2023-01-29T12:10:36.826Z,28.17
2023-01-29T12:15:29.775Z,23.15
2023-01-29T12:20:31.541Z,22.52
2023-01-29T12:25:24.978Z,23.85
2023-01-29T12:30:26.712Z,25.08
2023-01-29T12:35:25.844Z,23.33
2023-01-29T12:40:21.061Z,24.70
2023-01-29T12:45:19.799Z,23.80
2023-01-29T12:50:19.376Z,25.60
2023-01-29T12:55:24.989Z,25.65
2023-01-29T13:00:39.696Z,24.65
2023-01-29T13:05:39.248Z,22.67
2023-01-29T13:15:35.889Z,21.73
2023-01-29T13:20:32.808Z,19.48
2023-01-29T13:25:32.335Z,18.80
2023-01-29T13:35:22.676Z,17.25
2023-01-29T13:40:21.490Z,23.17
2023-01-29T13:45:27.640Z,17.30
2023-01-29T13:50:36.453Z,17.80
2023-01-29T13:55:41.335Z,27.50
2023-01-29T14:00:34.262Z,18.42
2023-01-29T14:05:32.501Z,20.50
2023-01-29T14:10:27.058Z,21.40
2023-01-29T14:15:21.439Z,17.65
2023-01-29T14:20:20.783Z,18.00
2023-01-29T14:25:19.559Z,19.67
2023-01-29T14:35:21.336Z,21.23
2023-01-29T14:40:19.596Z,18.45
2023-01-29T14:45:33.984Z,20.13
2023-01-29T14:50:29.349Z,20.67
2023-01-29T14:55:38.306Z,20.83
2023-01-29T15:00:40.234Z,21.03
2023-01-29T15:05:37.329Z,19.35
2023-01-29T15:10:29.596Z,15.45
2023-01-29T15:15:38.119Z,20.20
2023-01-29T15:20:37.748Z,18.70
2023-01-29T15:25:37.612Z,22.80
2023-01-29T15:30:33.753Z,18.30
2023-01-29T15:35:51.664Z,23.05
2023-01-29T15:41:05.062Z,18.52
2023-01-29T15:46:35.472Z,19.55
2023-01-29T15:51:28.852Z,19.77
2023-01-29T15:56:47.425Z,22.17
2023-01-29T16:01:41.135Z,24.20
2023-01-29T16:06:38.649Z,22.08
2023-01-29T16:11:33.179Z,22.02
2023-01-29T16:16:28.290Z,23.38
2023-01-29T16:21:39.843Z,20.05
2023-01-29T16:26:53.382Z,24.65
2023-01-29T16:31:47.736Z,29.30
2023-01-29T16:36:48.064Z,24.75
2023-01-29T16:41:41.040Z,24.88
2023-01-29T16:46:37.457Z,18.38
2023-01-29T16:51:31.173Z,22.33
2023-01-29T16:56:24.610Z,24.02
2023-01-29T17:01:18.127Z,24.17
2023-01-29T17:06:30.919Z,41.67
2023-01-29T17:11:37.621Z,43.58
2023-01-29T17:16:33.338Z,43.92
2023-01-29T17:21:27.888Z,48.78
2023-01-29T17:26:22.223Z,38.78
2023-01-29T17:31:15.901Z,36.03
2023-01-29T17:36:14.231Z,36.22
2023-01-29T17:41:13.593Z,32.72
2023-01-29T17:46:07.220Z,33.97
2023-01-29T17:51:03.974Z,41.13
2023-01-29T17:55:56.885Z,36.78
2023-01-29T18:00:50.976Z,46.78
2023-01-29T18:05:44.755Z,41.95
2023-01-29T18:10:38.811Z,35.63
2023-01-29T18:15:32.821Z,54.47
2023-01-29T18:20:27.249Z,48.65
2023-01-29T18:25:21.140Z,51.97
2023-01-29T18:30:15.315Z,53.08
2023-01-29T18:35:10.780Z,54.03
2023-01-29T18:40:03.979Z,52.45
2023-01-29T18:44:58.224Z,60.85
2023-01-29T18:49:51.982Z,81.05
2023-01-29T18:54:45.042Z,59.85
2023-01-29T18:59:39.257Z,63.85
2023-01-29T19:04:33.281Z,66.28
2023-01-29T19:09:28.747Z,64.53
2023-01-29T19:14:24.148Z,56.72
2023-01-29T19:19:19.011Z,55.78
2023-01-29T19:24:14.427Z,60.65
2023-01-29T19:29:09.518Z,48.85
2023-01-29T19:34:03.286Z,54.28
2023-01-29T19:38:56.638Z,47.60
2023-01-29T19:43:50.753Z,57.03
2023-01-29T19:48:43.924Z,53.20
2023-01-29T19:53:38.610Z,45.45
2023-01-29T19:58:32.254Z,42.05
2023-01-29T20:03:25.654Z,54.90
2023-01-29T20:08:19.680Z,66.95
2023-01-29T20:13:17.229Z,54.03
2023-01-29T20:18:12.728Z,57.28
2023-01-29T20:23:06.644Z,50.03
2023-01-29T20:27:59.624Z,37.30
2023-01-29T20:32:53.279Z,35.83
2023-01-29T20:37:46.876Z,37.17
2023-01-29T20:42:40.262Z,35.33
2023-01-29T20:47:33.122Z,35.20
2023-01-29T20:52:27.171Z,34.00
2023-01-29T20:57:19.405Z,36.40
2023-01-29T21:02:12.056Z,32.13
2023-01-29T21:07:06.368Z,39.22
2023-01-29T21:12:00.278Z,38.55
2023-01-29T21:16:54.267Z,36.45
2023-01-29T21:21:48.592Z,38.78
2023-01-29T21:26:42.569Z,53.00
2023-01-29T21:31:35.796Z,42.53
2023-01-29T21:36:29.649Z,43.95
2023-01-29T21:41:42.491Z,45.58
2023-01-29T21:46:36.093Z,49.15
2023-01-29T21:51:30.065Z,30.92
2023-01-29T21:56:23.604Z,34.17
2023-01-29T22:01:37.951Z,30.92
2023-01-29T22:06:30.771Z,30.45
2023-01-29T22:11:24.248Z,30.55
2023-01-29T22:16:17.224Z,28.25
2023-01-29T22:21:10.928Z,27.42
2023-01-29T22:26:06.457Z,26.15
2023-01-29T22:31:05.577Z,25.23
2023-01-29T22:35:58.686Z,29.50
2023-01-29T22:40:56.860Z,28.80
2023-01-29T22:45:50.396Z,25.80
2023-01-29T22:50:53.176Z,34.13
2023-01-29T22:55:55.637Z,25.55
2023-01-29T23:01:08.288Z,28.73
2023-01-29T23:06:01.594Z,25.67
2023-01-29T23:10:54.166Z,28.90
2023-01-29T23:15:46.768Z,29.27
2023-01-29T23:20:40.155Z,26.95
2023-01-29T23:25:52.204Z,25.05
2023-01-29T23:30:45.947Z,24.83
2023-01-29T23:35:39.683Z,26.85
2023-01-29T23:40:32.322Z,27.65
2023-01-29T23:45:26.139Z,25.40
2023-01-29T23:50:20.355Z,23.30
2023-01-29T23:55:14.557Z,26.23
